Time;durP1;ratioP1;P1;durP2;ratioP2;P2;SDS_P1;SDS_P2;PMS_P1;PMS_P2;Temp;Humidity;BMP_temperature;BMP_pressure;BME280_temperature;BME280_humidity;BME280_pressure;Samples;Min_cycle;Max_cycle;Signal;HPM_P1;HPM_P2
2021/07/07 00:01:14;;;;;;;4.05;1.00;;;18.10;99.90;;;;;;4146185;28;20100;-72
2021/07/07 00:03:15;;;;;;;3.33;1.45;;;18.10;99.90;;;;;;4145938;28;20034;-72
2021/07/07 00:05:18;;;;;;;2.13;1.13;;;18.10;99.90;;;;;;4146078;28;20528;-72
2021/07/07 00:07:19;;;;;;;2.38;1.08;;;18.10;99.90;;;;;;4142989;28;20548;-72
2021/07/07 00:09:20;;;;;;;1.63;1.15;;;18.10;99.90;;;;;;4142800;28;20042;-72
2021/07/07 00:11:20;;;;;;;5.00;1.58;;;18.10;99.90;;;;;;4141075;28;20445;-72
2021/07/07 00:13:21;;;;;;;2.42;0.82;;;18.10;99.90;;;;;;4147678;28;20025;-72
2021/07/07 00:15:22;;;;;;;2.45;1.02;;;18.10;99.90;;;;;;4146935;28;20042;-72
2021/07/07 00:17:23;;;;;;;1.90;1.10;;;18.10;99.90;;;;;;4147051;28;20125;-73
2021/07/07 00:19:24;;;;;;;2.35;1.15;;;18.10;99.90;;;;;;4143819;28;20111;-72
2021/07/07 00:21:24;;;;;;;2.58;1.08;;;18.10;99.90;;;;;;4145632;28;20053;-72
2021/07/07 00:23:27;;;;;;;1.42;0.90;;;18.10;99.90;;;;;;4145419;28;20069;-72
2021/07/07 00:25:28;;;;;;;3.45;1.05;;;18.00;99.90;;;;;;4146308;28;20647;-72
2021/07/07 00:27:29;;;;;;;1.88;1.17;;;18.00;99.90;;;;;;4145346;28;20038;-72
2021/07/07 00:29:29;;;;;;;3.53;1.00;;;18.00;99.90;;;;;;4145123;28;20034;-72
2021/07/07 00:31:30;;;;;;;3.03;1.17;;;18.00;99.90;;;;;;4142472;28;20044;-72
2021/07/07 00:33:31;;;;;;;3.05;1.25;;;18.00;99.90;;;;;;4143751;28;20034;-72
2021/07/07 00:35:32;;;;;;;1.40;1.00;;;17.90;99.90;;;;;;4160711;28;20044;-72
2021/07/07 00:37:32;;;;;;;1.88;1.05;;;17.90;99.90;;;;;;4145710;28;20115;-72
2021/07/07 00:39:33;;;;;;;2.00;0.90;;;17.80;99.90;;;;;;4144469;28;20042;-72
2021/07/07 00:41:33;;;;;;;3.13;1.17;;;17.80;99.90;;;;;;4145177;28;20113;-72
2021/07/07 00:43:34;;;;;;;2.47;0.90;;;17.90;99.90;;;;;;4147328;28;20044;-72
2021/07/07 00:45:35;;;;;;;2.17;1.15;;;17.90;99.90;;;;;;4145385;28;20065;-73
2021/07/07 00:47:36;;;;;;;2.30;0.98;;;17.90;99.90;;;;;;4145597;28;20037;-73
2021/07/07 00:49:36;;;;;;;1.33;0.82;;;17.80;99.90;;;;;;4144423;28;20045;-72
2021/07/07 00:51:37;;;;;;;1.88;0.98;;;17.80;99.90;;;;;;4146953;28;20046;-72
2021/07/07 00:53:39;;;;;;;2.90;1.25;;;17.80;99.90;;;;;;4144842;28;20029;-72
2021/07/07 00:55:41;;;;;;;3.35;1.20;;;17.80;99.90;;;;;;4144881;28;20061;-72
2021/07/07 00:57:44;;;;;;;1.85;0.95;;;17.80;99.90;;;;;;4148450;28;20065;-72
2021/07/07 00:59:45;;;;;;;3.42;1.15;;;17.80;99.90;;;;;;4138801;28;20037;-72
2021/07/07 01:01:46;;;;;;;5.38;1.17;;;17.80;99.90;;;;;;4144670;28;20041;-73
2021/07/07 01:03:47;;;;;;;4.00;1.10;;;17.80;99.90;;;;;;4145553;28;21541;-72
2021/07/07 01:05:47;;;;;;;2.67;1.05;;;17.80;99.90;;;;;;4145085;28;20406;-73
2021/07/07 01:07:48;;;;;;;2.60;1.20;;;17.70;99.90;;;;;;4144593;28;20041;-73
2021/07/07 01:09:49;;;;;;;1.70;0.90;;;17.70;99.90;;;;;;4146556;28;20042;-73
2021/07/07 01:11:49;;;;;;;4.18;1.23;;;17.70;99.90;;;;;;4143839;28;20042;-72
2021/07/07 01:13:50;;;;;;;2.42;1.20;;;17.70;99.90;;;;;;4142689;28;20062;-72
2021/07/07 01:15:55;;;;;;;2.67;1.05;;;17.70;99.90;;;;;;4143777;28;20060;-72
2021/07/07 01:17:55;;;;;;;3.97;1.50;;;17.70;99.90;;;;;;4144954;28;20038;-72
2021/07/07 01:19:56;;;;;;;2.63;1.30;;;17.70;99.90;;;;;;4142459;28;24898;-73
2021/07/07 01:21:57;;;;;;;5.93;1.45;;;17.60;99.90;;;;;;4140603;28;20103;-72
2021/07/07 01:23:57;;;;;;;3.88;1.10;;;17.60;99.90;;;;;;4142182;28;20049;-72
2021/07/07 01:25:59;;;;;;;2.10;1.20;;;17.60;99.90;;;;;;4143339;28;20471;-72
2021/07/07 01:28:04;;;;;;;4.60;1.50;;;17.60;99.90;;;;;;4142816;28;20749;-72
2021/07/07 01:30:09;;;;;;;3.67;1.38;;;17.60;99.90;;;;;;4140568;28;20033;-72
2021/07/07 01:32:09;;;;;;;4.85;0.98;;;17.60;99.90;;;;;;4138963;28;20153;-72
2021/07/07 01:34:10;;;;;;;3.00;1.00;;;17.60;99.90;;;;;;4141982;28;20102;-72
2021/07/07 01:36:11;;;;;;;1.58;1.05;;;17.50;99.90;;;;;;4144323;28;20033;-72
2021/07/07 01:38:12;;;;;;;3.95;1.30;;;17.50;99.90;;;;;;4133002;28;20653;-72
2021/07/07 01:40:15;;;;;;;4.03;1.20;;;17.50;99.90;;;;;;4142772;28;20053;-73
2021/07/07 01:42:15;;;;;;;2.72;1.30;;;17.50;99.90;;;;;;4118138;28;20033;-72
2021/07/07 01:44:16;;;;;;;2.15;1.08;;;17.50;99.90;;;;;;4145664;28;20026;-72
2021/07/07 01:46:17;;;;;;;2.70;1.10;;;17.50;99.90;;;;;;4143161;28;20030;-72
2021/07/07 01:48:17;;;;;;;3.30;1.30;;;17.50;99.90;;;;;;4130575;28;20034;-72
2021/07/07 01:50:19;;;;;;;3.55;1.33;;;17.40;99.90;;;;;;4139219;28;20046;-72
2021/07/07 01:52:19;;;;;;;3.00;1.20;;;17.40;99.90;;;;;;4142158;28;20038;-72
2021/07/07 01:54:20;;;;;;;1.23;0.98;;;17.40;99.90;;;;;;4142416;28;20026;-72
2021/07/07 01:56:21;;;;;;;2.58;1.25;;;17.40;99.90;;;;;;4145286;28;20542;-72
2021/07/07 01:58:22;;;;;;;1.35;1.13;;;17.40;99.90;;;;;;4138256;28;20041;-72
2021/07/07 02:00:29;;;;;;;1.05;0.90;;;17.40;99.90;;;;;;4138001;28;20105;-72
2021/07/07 02:02:29;;;;;;;4.03;1.27;;;17.40;99.90;;;;;;4143613;28;20703;-72
2021/07/07 02:04:30;;;;;;;3.08;0.93;;;17.40;99.90;;;;;;4147401;28;20029;-72
2021/07/07 02:06:31;;;;;;;2.67;1.10;;;17.40;99.90;;;;;;4146513;28;20061;-72
2021/07/07 02:08:31;;;;;;;1.95;0.80;;;17.40;99.90;;;;;;4146328;28;20037;-72
2021/07/07 02:10:33;;;;;;;1.85;1.20;;;17.40;99.90;;;;;;4149561;28;20048;-72
2021/07/07 02:12:33;;;;;;;2.25;1.10;;;17.40;99.90;;;;;;4157181;28;20045;-72
2021/07/07 02:14:34;;;;;;;3.00;1.40;;;17.40;99.90;;;;;;4154913;28;20852;-72
2021/07/07 02:16:35;;;;;;;3.25;1.35;;;17.40;99.90;;;;;;4146755;28;20041;-73
2021/07/07 02:18:35;;;;;;;2.33;1.33;;;17.30;99.90;;;;;;4143990;28;20447;-72
2021/07/07 02:20:40;;;;;;;3.13;1.85;;;17.30;99.90;;;;;;4144803;28;20063;-72
2021/07/07 02:22:42;;;;;;;3.58;1.40;;;17.30;99.90;;;;;;4157762;28;20041;-72
2021/07/07 02:24:43;;;;;;;3.03;1.50;;;17.30;99.90;;;;;;4157575;28;20363;-72
2021/07/07 02:26:44;;;;;;;10.35;1.90;;;17.30;99.90;;;;;;4144903;28;20052;-72
2021/07/07 02:28:44;;;;;;;2.42;1.20;;;17.30;99.90;;;;;;4142663;28;20030;-72
2021/07/07 02:30:45;;;;;;;3.40;1.50;;;17.20;99.90;;;;;;4143389;28;20474;-73
2021/07/07 02:32:47;;;;;;;1.90;1.05;;;17.20;99.90;;;;;;4142717;28;20042;-72
2021/07/07 02:34:47;;;;;;;4.78;1.90;;;17.30;99.90;;;;;;4143803;28;20037;-72
2021/07/07 02:36:49;;;;;;;2.85;1.70;;;17.20;99.90;;;;;;4144003;28;20068;-72
2021/07/07 02:38:49;;;;;;;2.60;1.60;;;17.20;99.90;;;;;;4142315;28;20042;-72
2021/07/07 02:40:52;;;;;;;5.18;1.90;;;17.20;99.90;;;;;;4147937;28;20065;-73
2021/07/07 02:42:54;;;;;;;4.88;1.80;;;17.10;99.90;;;;;;4147073;28;20034;-72
2021/07/07 02:44:54;;;;;;;4.00;1.85;;;17.10;99.90;;;;;;4150000;28;20038;-72
2021/07/07 02:46:55;;;;;;;2.85;1.75;;;17.10;99.90;;;;;;4156592;28;20087;-72
2021/07/07 02:48:56;;;;;;;7.13;2.05;;;17.00;99.90;;;;;;4153743;28;20034;-72
2021/07/07 02:50:56;;;;;;;5.10;1.73;;;17.00;99.90;;;;;;4146698;28;20046;-72
2021/07/07 02:52:57;;;;;;;13.68;2.47;;;17.00;99.90;;;;;;4141521;28;20055;-72
2021/07/07 02:54:58;;;;;;;6.25;2.20;;;16.90;99.90;;;;;;4154467;28;20440;-73
2021/07/07 02:56:58;;;;;;;4.50;2.05;;;16.90;99.90;;;;;;4153113;28;20068;-72
2021/07/07 02:58:59;;;;;;;4.25;1.98;;;16.80;99.90;;;;;;4154825;28;20060;-72
2021/07/07 03:01:01;;;;;;;4.90;2.40;;;16.90;99.90;;;;;;4149214;28;20088;-72
2021/07/07 03:03:11;;;;;;;3.28;1.90;;;16.80;99.90;;;;;;4160538;28;20041;-72
2021/07/07 03:05:12;;;;;;;5.45;2.30;;;16.80;99.90;;;;;;4157834;28;20057;-72
2021/07/07 03:07:12;;;;;;;9.18;2.72;;;16.80;99.90;;;;;;4148849;28;20137;-72
2021/07/07 03:09:13;;;;;;;4.85;2.13;;;16.80;99.90;;;;;;4149688;28;20042;-72
2021/07/07 03:11:14;;;;;;;6.07;2.42;;;16.70;99.90;;;;;;4147070;28;20046;-73
2021/07/07 03:13:16;;;;;;;4.93;1.75;;;16.70;99.90;;;;;;4147932;28;20046;-72
2021/07/07 03:15:17;;;;;;;5.18;2.08;;;16.80;99.90;;;;;;4149229;28;20502;-72
2021/07/07 03:17:17;;;;;;;5.60;2.00;;;16.70;99.90;;;;;;4148780;28;20099;-72
2021/07/07 03:19:18;;;;;;;7.82;2.28;;;16.70;99.90;;;;;;4149324;28;20056;-72
2021/07/07 03:21:19;;;;;;;8.32;2.45;;;16.70;99.90;;;;;;4147429;28;20115;-72
2021/07/07 03:23:21;;;;;;;6.75;2.20;;;16.70;99.90;;;;;;4147711;28;20129;-72
2021/07/07 03:25:23;;;;;;;;;;;16.70;99.90;;;;;;4151298;28;20030;-72
2021/07/07 03:27:23;;;;;;;3.95;2.03;;;16.60;99.90;;;;;;4148835;28;19922;-72
2021/07/07 03:29:24;;;;;;;6.68;3.00;;;16.60;99.90;;;;;;4149198;28;20064;-72
2021/07/07 03:31:25;;;;;;;5.68;2.55;;;16.60;99.90;;;;;;4149202;28;20461;-72
2021/07/07 03:33:25;;;;;;;9.00;3.10;;;16.60;99.90;;;;;;4147307;28;20030;-71
2021/07/07 03:35:26;;;;;;;6.93;2.75;;;16.60;99.90;;;;;;4149930;28;20042;-72
2021/07/07 03:37:27;;;;;;;10.52;3.10;;;16.50;99.90;;;;;;4130541;28;20044;-71
2021/07/07 03:39:28;;;;;;;6.00;2.60;;;16.50;99.90;;;;;;4148237;28;20126;-72
2021/07/07 03:41:28;;;;;;;5.05;2.47;;;16.50;99.90;;;;;;4147844;28;20423;-72
2021/07/07 03:43:29;;;;;;;7.25;3.38;;;16.50;99.90;;;;;;4149457;28;20044;-72
2021/07/07 03:45:29;;;;;;;11.40;3.53;;;16.40;99.90;;;;;;4148681;28;20034;-72
2021/07/07 03:47:30;;;;;;;11.55;4.57;;;16.50;99.90;;;;;;4148083;28;20085;-72
2021/07/07 03:49:31;;;;;;;10.35;4.45;;;16.40;99.90;;;;;;4131803;28;20062;-72
2021/07/07 03:51:31;;;;;;;6.63;3.63;;;16.40;99.90;;;;;;4127959;28;20118;-72
2021/07/07 03:53:32;;;;;;;10.43;4.20;;;16.40;99.90;;;;;;4146552;28;20034;-72
2021/07/07 03:55:33;;;;;;;9.70;4.05;;;16.40;99.90;;;;;;4147078;28;20141;-72
2021/07/07 03:57:34;;;;;;;7.25;3.97;;;16.40;99.90;;;;;;4144012;28;20068;-72
2021/07/07 03:59:35;;;;;;;5.97;3.30;;;16.40;99.90;;;;;;4144672;28;20065;-72
2021/07/07 04:01:36;;;;;;;8.88;3.17;;;16.40;99.90;;;;;;4145166;28;20124;-72
2021/07/07 04:03:36;;;;;;;6.68;2.83;;;16.40;99.90;;;;;;4144729;28;20030;-72
2021/07/07 04:05:38;;;;;;;8.10;3.47;;;16.40;99.90;;;;;;4143708;28;20041;-72
2021/07/07 04:07:39;;;;;;;9.48;3.28;;;16.40;99.90;;;;;;4147881;28;20041;-72
2021/07/07 04:09:40;;;;;;;7.55;3.45;;;;;;;;;;4142882;28;20697;-72
2021/07/07 04:11:41;;;;;;;8.85;3.63;;;;;;;;;;4145295;28;20571;-72
2021/07/07 04:13:42;;;;;;;9.65;2.72;;;;;;;;;;4144329;28;20433;-72
2021/07/07 04:15:43;;;;;;;7.10;2.92;;;;;;;;;;4144356;28;20120;-72
2021/07/07 04:17:45;;;;;;;6.45;2.20;;;;;;;;;;4144463;28;20119;-72
2021/07/07 04:19:46;;;;;;;3.33;1.95;;;;;;;;;;4144644;28;20033;-72
2021/07/07 04:21:47;;;;;;;10.00;2.20;;;;;;;;;;4144344;28;20125;-72
2021/07/07 04:23:48;;;;;;;7.10;2.00;;;;;;;;;;4143739;28;20038;-72
2021/07/07 04:25:49;;;;;;;6.20;2.83;;;;;;;;;;4144027;28;20109;-72
2021/07/07 04:27:50;;;;;;;11.73;2.63;;;;;;;;;;4159989;28;20046;-72
2021/07/07 04:29:51;;;;;;;5.30;2.15;;;;;;;;;;4142130;28;20406;-72
2021/07/07 04:31:56;;;;;;;4.15;2.28;;;;;;;;;;4145789;28;20037;-72
2021/07/07 04:33:57;;;;;;;5.78;2.40;;;;;;;;;;4145206;28;20041;-72
2021/07/07 04:35:58;;;;;;;6.72;2.58;;;;;;;;;;4144046;28;20040;-72
2021/07/07 04:37:59;;;;;;;5.65;2.10;;;;;;;;;;4143238;28;20121;-72
2021/07/07 04:40:00;;;;;;;7.60;2.10;;;;;;;;;;4144026;28;20034;-72
2021/07/07 04:42:01;;;;;;;4.03;2.53;;;;;;;;;;4146803;28;20187;-72
2021/07/07 04:44:03;;;;;;;3.92;1.63;;;;;;;;;;4139796;28;20042;-72
2021/07/07 04:46:04;;;;;;;8.85;2.38;;;;;;;;;;4142504;28;20061;-72
2021/07/07 04:48:05;;;;;;;10.65;2.85;;;;;;;;;;4142246;28;20042;-72
2021/07/07 04:50:07;;;;;;;6.25;2.42;;;;;;;;;;4144289;28;20046;-72
2021/07/07 04:52:08;;;;;;;7.47;2.40;;;;;;;;;;4143954;28;20598;-72
2021/07/07 04:54:09;;;;;;;8.00;2.75;;;;;;;;;;4144028;28;20038;-72
2021/07/07 04:56:10;;;;;;;7.90;2.47;;;;;;;;;;4144021;28;20034;-72
2021/07/07 04:58:11;;;;;;;8.95;2.55;;;;;;;;;;4140600;28;20626;-72
2021/07/07 05:00:14;;;;;;;4.80;2.33;;;;;;;;;;4138847;28;20084;-72
2021/07/07 05:02:15;;;;;;;;;;;;;;;;;;4139468;28;20056;-72
2021/07/07 05:04:16;;;;;;;5.63;1.70;;;;;;;;;;4138278;28;19914;-72
2021/07/07 05:06:17;;;;;;;8.27;2.53;;;;;;;;;;4139306;28;20034;-72
2021/07/07 05:08:18;;;;;;;5.20;2.10;;;;;;;;;;4140747;28;20046;-72
2021/07/07 05:10:19;;;;;;;6.50;2.60;;;;;;;;;;4139389;28;20485;-72
2021/07/07 05:12:20;;;;;;;9.45;2.80;;;;;;;;;;4137911;28;21018;-72
2021/07/07 05:14:21;;;;;;;7.07;2.40;;;;;;;;;;4139783;28;20037;-72
2021/07/07 05:16:22;;;;;;;11.20;3.80;;;;;;;;;;4139339;28;20057;-72
2021/07/07 05:18:23;;;;;;;7.10;2.40;;;;;;;;;;4138237;28;20925;-72
2021/07/07 05:20:25;;;;;;;9.48;2.88;;;;;;;;;;4139877;28;20045;-72
2021/07/07 05:22:28;;;;;;;10.52;2.85;;;;;;;;;;4132502;28;20076;-72
2021/07/07 05:24:29;;;;;;;9.07;2.78;;;;;;;;;;4136154;28;20486;-72
2021/07/07 05:26:30;;;;;;;5.35;2.28;;;;;;;;;;4139810;28;20041;-72
2021/07/07 05:28:31;;;;;;;7.55;2.90;;;;;;;;;;4139191;28;20065;-72
2021/07/07 05:30:33;;;;;;;4.43;2.63;;;;;;;;;;4140360;28;20026;-72
2021/07/07 05:32:35;;;;;;;8.23;2.38;;;;;;;;;;4141155;28;20497;-72
2021/07/07 05:34:38;;;;;;;10.52;2.60;;;;;;;;;;4139509;28;20037;-72
2021/07/07 05:36:39;;;;;;;19.60;2.97;;;;;;;;;;4135895;28;20068;-72
2021/07/07 05:38:40;;;;;;;11.23;2.88;;;;;;;;;;4137920;28;20038;-72
2021/07/07 05:40:41;;;;;;;6.63;2.30;;;;;;;;;;4136229;28;20097;-71
2021/07/07 05:42:43;;;;;;;6.57;2.05;;;;;;;;;;4137714;28;20146;-71
2021/07/07 05:44:44;;;;;;;;;;;;;;;;;;4140111;28;20492;-72
2021/07/07 05:46:45;;;;;;;8.75;2.60;;;;;;;;;;4148852;28;19913;-72
2021/07/07 05:48:47;;;;;;;6.13;1.98;;;;;;;;;;4157921;28;20479;-72
